sensor_id;sensor_type;location;lat;lon;timestamp;P1;durP1;ratioP1;P2;durP2;ratioP2
49458;SDS011;35354;51.296;16.924;2022-08-16T00:00:12;12.63;;;11.32;;
49458;SDS011;35354;51.296;16.924;2022-08-16T00:02:40;12.07;;;10.73;;
49458;SDS011;35354;51.296;16.924;2022-08-16T00:05:06;12.38;;;11.07;;
49458;SDS011;35354;51.296;16.924;2022-08-16T00:07:34;11.13;;;9.57;;
49458;SDS011;35354;51.296;16.924;2022-08-16T00:10:00;12.25;;;10.85;;
49458;SDS011;35354;51.296;16.924;2022-08-16T00:12:26;11.70;;;10.60;;
49458;SDS011;35354;51.296;16.924;2022-08-16T00:14:54;11.07;;;9.25;;
49458;SDS011;35354;51.296;16.924;2022-08-16T00:17:21;14.57;;;11.38;;
49458;SDS011;35354;51.296;16.924;2022-08-16T00:19:46;12.13;;;11.02;;
49458;SDS011;35354;51.296;16.924;2022-08-16T00:22:12;11.70;;;10.60;;
49458;SDS011;35354;51.296;16.924;2022-08-16T00:24:37;12.85;;;10.57;;
49458;SDS011;35354;51.296;16.924;2022-08-16T00:27:03;12.10;;;10.75;;
49458;SDS011;35354;51.296;16.924;2022-08-16T00:29:29;13.02;;;10.73;;
49458;SDS011;35354;51.296;16.924;2022-08-16T00:31:54;13.20;;;11.05;;
49458;SDS011;35354;51.296;16.924;2022-08-16T00:34:20;12.27;;;10.98;;
49458;SDS011;35354;51.296;16.924;2022-08-16T00:36:46;11.95;;;10.75;;
49458;SDS011;35354;51.296;16.924;2022-08-16T00:39:13;12.05;;;10.07;;
49458;SDS011;35354;51.296;16.924;2022-08-16T00:41:39;12.65;;;10.85;;
49458;SDS011;35354;51.296;16.924;2022-08-16T00:44:06;11.55;;;10.32;;
49458;SDS011;35354;51.296;16.924;2022-08-16T00:46:40;11.95;;;10.75;;
49458;SDS011;35354;51.296;16.924;2022-08-16T00:49:14;14.00;;;10.68;;
49458;SDS011;35354;51.296;16.924;2022-08-16T00:51:40;13.05;;;10.65;;
49458;SDS011;35354;51.296;16.924;2022-08-16T00:54:06;12.30;;;11.05;;
49458;SDS011;35354;51.296;16.924;2022-08-16T00:56:32;12.23;;;10.48;;
49458;SDS011;35354;51.296;16.924;2022-08-16T00:59:00;11.82;;;10.68;;
49458;SDS011;35354;51.296;16.924;2022-08-16T01:01:27;11.52;;;10.40;;
49458;SDS011;35354;51.296;16.924;2022-08-16T01:03:53;16.38;;;10.90;;
49458;SDS011;35354;51.296;16.924;2022-08-16T01:06:19;12.57;;;10.43;;
49458;SDS011;35354;51.296;16.924;2022-08-16T01:08:53;11.70;;;10.50;;
49458;SDS011;35354;51.296;16.924;2022-08-16T01:11:21;11.63;;;10.43;;
49458;SDS011;35354;51.296;16.924;2022-08-16T01:13:49;11.52;;;10.43;;
49458;SDS011;35354;51.296;16.924;2022-08-16T01:16:21;11.70;;;10.57;;
49458;SDS011;35354;51.296;16.924;2022-08-16T01:18:49;11.43;;;10.23;;
49458;SDS011;35354;51.296;16.924;2022-08-16T01:27:08;12.10;;;10.90;;
49458;SDS011;35354;51.296;16.924;2022-08-16T01:29:58;12.70;;;11.38;;
49458;SDS011;35354;51.296;16.924;2022-08-16T01:32:29;11.45;;;10.35;;
49458;SDS011;35354;51.296;16.924;2022-08-16T01:34:57;11.73;;;10.70;;
49458;SDS011;35354;51.296;16.924;2022-08-16T01:37:23;10.77;;;9.77;;
49458;SDS011;35354;51.296;16.924;2022-08-16T01:39:48;12.93;;;10.57;;
49458;SDS011;35354;51.296;16.924;2022-08-16T01:42:13;12.05;;;10.90;;
49458;SDS011;35354;51.296;16.924;2022-08-16T01:44:40;13.95;;;10.93;;
49458;SDS011;35354;51.296;16.924;2022-08-16T01:47:06;11.82;;;10.32;;
49458;SDS011;35354;51.296;16.924;2022-08-16T01:49:37;11.75;;;10.40;;
49458;SDS011;35354;51.296;16.924;2022-08-16T01:52:07;11.38;;;10.25;;
49458;SDS011;35354;51.296;16.924;2022-08-16T01:54:36;12.18;;;10.85;;
49458;SDS011;35354;51.296;16.924;2022-08-16T01:57:02;12.07;;;10.30;;
49458;SDS011;35354;51.296;16.924;2022-08-16T01:59:29;12.48;;;10.82;;
49458;SDS011;35354;51.296;16.924;2022-08-16T02:01:55;11.88;;;10.63;;
49458;SDS011;35354;51.296;16.924;2022-08-16T02:04:21;11.50;;;10.10;;
49458;SDS011;35354;51.296;16.924;2022-08-16T02:06:49;12.32;;;11.00;;
49458;SDS011;35354;51.296;16.924;2022-08-16T02:09:16;11.48;;;10.27;;
49458;SDS011;35354;51.296;16.924;2022-08-16T02:11:44;14.30;;;10.95;;
49458;SDS011;35354;51.296;16.924;2022-08-16T02:14:15;12.70;;;10.48;;
49458;SDS011;35354;51.296;16.924;2022-08-16T02:16:41;12.43;;;11.10;;
49458;SDS011;35354;51.296;16.924;2022-08-16T02:19:08;12.55;;;11.13;;
49458;SDS011;35354;51.296;16.924;2022-08-16T02:21:35;11.73;;;10.55;;
49458;SDS011;35354;51.296;16.924;2022-08-16T02:24:00;12.40;;;11.20;;
49458;SDS011;35354;51.296;16.924;2022-08-16T02:26:25;11.98;;;10.82;;
49458;SDS011;35354;51.296;16.924;2022-08-16T02:28:51;11.50;;;10.10;;
49458;SDS011;35354;51.296;16.924;2022-08-16T02:31:16;13.00;;;11.73;;
49458;SDS011;35354;51.296;16.924;2022-08-16T02:33:42;11.73;;;10.23;;
49458;SDS011;35354;51.296;16.924;2022-08-16T02:36:08;14.75;;;10.90;;
49458;SDS011;35354;51.296;16.924;2022-08-16T02:38:35;11.68;;;10.45;;
49458;SDS011;35354;51.296;16.924;2022-08-16T02:41:03;11.70;;;10.50;;
49458;SDS011;35354;51.296;16.924;2022-08-16T02:43:30;11.45;;;10.32;;
49458;SDS011;35354;51.296;16.924;2022-08-16T02:45:57;12.88;;;10.68;;
49458;SDS011;35354;51.296;16.924;2022-08-16T02:48:23;11.93;;;10.80;;
49458;SDS011;35354;51.296;16.924;2022-08-16T02:50:50;13.05;;;11.07;;
49458;SDS011;35354;51.296;16.924;2022-08-16T02:53:16;13.23;;;11.50;;
49458;SDS011;35354;51.296;16.924;2022-08-16T02:55:41;12.55;;;11.25;;
49458;SDS011;35354;51.296;16.924;2022-08-16T02:58:07;13.18;;;11.98;;
49458;SDS011;35354;51.296;16.924;2022-08-16T03:00:33;13.68;;;11.52;;
49458;SDS011;35354;51.296;16.924;2022-08-16T03:02:59;12.63;;;11.32;;
49458;SDS011;35354;51.296;16.924;2022-08-16T03:05:24;12.75;;;11.45;;
49458;SDS011;35354;51.296;16.924;2022-08-16T03:07:50;12.95;;;11.65;;
49458;SDS011;35354;51.296;16.924;2022-08-16T03:10:16;13.60;;;12.20;;
49458;SDS011;35354;51.296;16.924;2022-08-16T03:12:43;12.02;;;10.93;;
49458;SDS011;35354;51.296;16.924;2022-08-16T03:15:11;13.10;;;11.80;;
49458;SDS011;35354;51.296;16.924;2022-08-16T03:17:38;12.95;;;10.85;;
49458;SDS011;35354;51.296;16.924;2022-08-16T03:20:05;12.52;;;11.18;;
49458;SDS011;35354;51.296;16.924;2022-08-16T03:22:32;12.68;;;11.38;;
49458;SDS011;35354;51.296;16.924;2022-08-16T03:24:59;13.00;;;11.75;;
49458;SDS011;35354;51.296;16.924;2022-08-16T03:27:26;12.65;;;11.35;;
49458;SDS011;35354;51.296;16.924;2022-08-16T03:29:53;13.68;;;12.27;;
49458;SDS011;35354;51.296;16.924;2022-08-16T03:32:18;12.57;;;11.32;;
49458;SDS011;35354;51.296;16.924;2022-08-16T03:34:43;14.43;;;12.93;;
49458;SDS011;35354;51.296;16.924;2022-08-16T03:37:10;16.40;;;12.77;;
49458;SDS011;35354;51.296;16.924;2022-08-16T03:39:36;14.63;;;11.52;;
49458;SDS011;35354;51.296;16.924;2022-08-16T03:42:01;13.82;;;12.27;;
49458;SDS011;35354;51.296;16.924;2022-08-16T03:44:27;12.98;;;11.68;;
49458;SDS011;35354;51.296;16.924;2022-08-16T03:46:53;12.57;;;11.43;;
49458;SDS011;35354;51.296;16.924;2022-08-16T03:49:18;14.05;;;12.55;;
49458;SDS011;35354;51.296;16.924;2022-08-16T03:51:44;13.90;;;12.45;;
49458;SDS011;35354;51.296;16.924;2022-08-16T03:54:09;14.10;;;12.68;;
49458;SDS011;35354;51.296;16.924;2022-08-16T03:56:34;16.13;;;14.05;;
49458;SDS011;35354;51.296;16.924;2022-08-16T03:59:00;16.10;;;13.57;;
49458;SDS011;35354;51.296;16.924;2022-08-16T04:01:26;13.90;;;11.93;;
49458;SDS011;35354;51.296;16.924;2022-08-16T04:03:52;13.13;;;11.73;;
49458;SDS011;35354;51.296;16.924;2022-08-16T04:06:18;16.13;;;11.93;;
49458;SDS011;35354;51.296;16.924;2022-08-16T04:08:43;13.40;;;11.82;;
49458;SDS011;35354;51.296;16.924;2022-08-16T04:11:08;12.75;;;11.55;;
49458;SDS011;35354;51.296;16.924;2022-08-16T04:13:34;12.30;;;11.05;;
49458;SDS011;35354;51.296;16.924;2022-08-16T04:15:59;12.23;;;11.00;;
49458;SDS011;35354;51.296;16.924;2022-08-16T04:18:27;13.70;;;11.57;;
49458;SDS011;35354;51.296;16.924;2022-08-16T04:20:53;13.02;;;11.52;;
49458;SDS011;35354;51.296;16.924;2022-08-16T04:23:19;12.25;;;10.98;;
49458;SDS011;35354;51.296;16.924;2022-08-16T04:25:45;12.13;;;10.93;;
49458;SDS011;35354;51.296;16.924;2022-08-16T04:28:11;14.55;;;12.40;;
49458;SDS011;35354;51.296;16.924;2022-08-16T04:30:37;12.50;;;11.20;;
49458;SDS011;35354;51.296;16.924;2022-08-16T04:33:03;13.65;;;11.63;;
49458;SDS011;35354;51.296;16.924;2022-08-16T04:35:29;12.90;;;11.63;;
49458;SDS011;35354;51.296;16.924;2022-08-16T04:37:55;13.88;;;11.32;;
49458;SDS011;35354;51.296;16.924;2022-08-16T04:40:21;14.07;;;11.10;;
49458;SDS011;35354;51.296;16.924;2022-08-16T04:42:47;12.40;;;11.13;;
49458;SDS011;35354;51.296;16.924;2022-08-16T04:45:14;13.10;;;10.98;;
49458;SDS011;35354;51.296;16.924;2022-08-16T04:47:41;13.00;;;11.65;;
49458;SDS011;35354;51.296;16.924;2022-08-16T04:50:09;15.05;;;11.85;;
49458;SDS011;35354;51.296;16.924;2022-08-16T04:55:16;14.02;;;11.15;;
49458;SDS011;35354;51.296;16.924;2022-08-16T04:57:44;12.10;;;10.90;;
49458;SDS011;35354;51.296;16.924;2022-08-16T05:00:13;11.30;;;10.13;;
49458;SDS011;35354;51.296;16.924;2022-08-16T05:02:43;12.32;;;9.98;;
49458;SDS011;35354;51.296;16.924;2022-08-16T05:05:09;16.20;;;10.18;;
49458;SDS011;35354;51.296;16.924;2022-08-16T05:07:36;10.40;;;8.80;;
49458;SDS011;35354;51.296;16.924;2022-08-16T05:10:03;10.75;;;9.68;;
49458;SDS011;35354;51.296;16.924;2022-08-16T05:12:30;9.88;;;8.50;;
49458;SDS011;35354;51.296;16.924;2022-08-16T05:14:56;10.20;;;9.20;;
49458;SDS011;35354;51.296;16.924;2022-08-16T05:17:21;11.65;;;9.30;;
49458;SDS011;35354;51.296;16.924;2022-08-16T05:19:47;10.23;;;8.60;;
49458;SDS011;35354;51.296;16.924;2022-08-16T05:22:13;8.60;;;7.60;;
49458;SDS011;35354;51.296;16.924;2022-08-16T05:24:38;8.52;;;7.72;;
49458;SDS011;35354;51.296;16.924;2022-08-16T05:27:04;7.85;;;7.15;;
49458;SDS011;35354;51.296;16.924;2022-08-16T05:29:29;7.45;;;6.68;;
49458;SDS011;35354;51.296;16.924;2022-08-16T05:31:54;11.38;;;7.22;;
49458;SDS011;35354;51.296;16.924;2022-08-16T05:34:20;12.13;;;7.25;;
49458;SDS011;35354;51.296;16.924;2022-08-16T05:36:48;9.75;;;7.28;;
49458;SDS011;35354;51.296;16.924;2022-08-16T05:39:15;7.85;;;7.03;;
49458;SDS011;35354;51.296;16.924;2022-08-16T05:41:40;7.75;;;6.85;;
49458;SDS011;35354;51.296;16.924;2022-08-16T05:44:05;7.45;;;6.63;;
49458;SDS011;35354;51.296;16.924;2022-08-16T05:46:31;7.28;;;6.45;;
49458;SDS011;35354;51.296;16.924;2022-08-16T05:48:59;6.85;;;6.18;;
49458;SDS011;35354;51.296;16.924;2022-08-16T05:51:28;6.50;;;5.90;;
49458;SDS011;35354;51.296;16.924;2022-08-16T05:53:53;7.68;;;6.82;;
49458;SDS011;35354;51.296;16.924;2022-08-16T05:56:18;7.97;;;6.97;;
49458;SDS011;35354;51.296;16.924;2022-08-16T05:58:44;7.60;;;6.97;;
49458;SDS011;35354;51.296;16.924;2022-08-16T06:01:09;7.90;;;7.10;;
49458;SDS011;35354;51.296;16.924;2022-08-16T06:03:35;8.57;;;6.68;;
49458;SDS011;35354;51.296;16.924;2022-08-16T06:06:01;7.78;;;6.78;;
49458;SDS011;35354;51.296;16.924;2022-08-16T06:08:27;8.35;;;7.38;;
49458;SDS011;35354;51.296;16.924;2022-08-16T06:10:52;7.65;;;6.85;;
49458;SDS011;35354;51.296;16.924;2022-08-16T06:13:18;12.02;;;7.05;;
49458;SDS011;35354;51.296;16.924;2022-08-16T06:15:43;8.38;;;7.43;;
49458;SDS011;35354;51.296;16.924;2022-08-16T06:18:08;8.70;;;7.90;;
49458;SDS011;35354;51.296;16.924;2022-08-16T06:20:34;8.65;;;7.93;;
49458;SDS011;35354;51.296;16.924;2022-08-16T06:22:59;9.65;;;7.18;;
49458;SDS011;35354;51.296;16.924;2022-08-16T06:25:25;7.70;;;7.00;;
49458;SDS011;35354;51.296;16.924;2022-08-16T06:27:52;11.68;;;8.10;;
49458;SDS011;35354;51.296;16.924;2022-08-16T06:30:17;8.57;;;7.72;;
49458;SDS011;35354;51.296;16.924;2022-08-16T06:32:43;8.70;;;7.68;;
49458;SDS011;35354;51.296;16.924;2022-08-16T06:35:08;10.68;;;7.10;;
49458;SDS011;35354;51.296;16.924;2022-08-16T06:37:35;9.60;;;7.68;;
49458;SDS011;35354;51.296;16.924;2022-08-16T06:40:01;8.63;;;7.70;;
49458;SDS011;35354;51.296;16.924;2022-08-16T06:42:28;10.18;;;7.88;;
49458;SDS011;35354;51.296;16.924;2022-08-16T06:44:53;9.30;;;7.38;;
49458;SDS011;35354;51.296;16.924;2022-08-16T06:47:18;8.50;;;7.60;;
49458;SDS011;35354;51.296;16.924;2022-08-16T06:49:44;7.78;;;7.05;;
49458;SDS011;35354;51.296;16.924;2022-08-16T06:52:09;8.05;;;7.25;;
49458;SDS011;35354;51.296;16.924;2022-08-16T06:54:35;11.30;;;7.57;;
49458;SDS011;35354;51.296;16.924;2022-08-16T06:57:00;8.98;;;7.88;;
49458;SDS011;35354;51.296;16.924;2022-08-16T06:59:26;8.32;;;7.35;;
49458;SDS011;35354;51.296;16.924;2022-08-16T07:01:51;8.13;;;7.32;;
49458;SDS011;35354;51.296;16.924;2022-08-16T07:04:17;8.13;;;7.32;;
49458;SDS011;35354;51.296;16.924;2022-08-16T07:06:42;7.75;;;7.05;;
49458;SDS011;35354;51.296;16.924;2022-08-16T07:09:08;6.63;;;6.03;;
49458;SDS011;35354;51.296;16.924;2022-08-16T07:11:35;7.13;;;6.53;;
49458;SDS011;35354;51.296;16.924;2022-08-16T07:14:00;7.25;;;6.55;;
49458;SDS011;35354;51.296;16.924;2022-08-16T07:16:26;7.72;;;6.43;;
49458;SDS011;35354;51.296;16.924;2022-08-16T07:18:51;6.53;;;5.93;;
49458;SDS011;35354;51.296;16.924;2022-08-16T07:21:17;6.93;;;6.20;;
49458;SDS011;35354;51.296;16.924;2022-08-16T07:23:42;6.88;;;5.97;;
49458;SDS011;35354;51.296;16.924;2022-08-16T07:26:11;6.60;;;5.87;;
49458;SDS011;35354;51.296;16.924;2022-08-16T07:28:39;8.80;;;5.82;;
49458;SDS011;35354;51.296;16.924;2022-08-16T07:31:04;7.47;;;5.78;;
49458;SDS011;35354;51.296;16.924;2022-08-16T07:33:30;7.20;;;5.80;;
49458;SDS011;35354;51.296;16.924;2022-08-16T07:35:58;6.55;;;5.50;;
49458;SDS011;35354;51.296;16.924;2022-08-16T07:38:24;5.57;;;5.18;;
49458;SDS011;35354;51.296;16.924;2022-08-16T07:40:51;5.53;;;5.10;;
49458;SDS011;35354;51.296;16.924;2022-08-16T07:43:21;5.68;;;5.20;;
49458;SDS011;35354;51.296;16.924;2022-08-16T07:45:47;6.22;;;5.38;;
49458;SDS011;35354;51.296;16.924;2022-08-16T07:48:13;5.72;;;5.13;;
49458;SDS011;35354;51.296;16.924;2022-08-16T07:50:40;5.63;;;5.13;;
49458;SDS011;35354;51.296;16.924;2022-08-16T07:53:06;6.35;;;5.20;;
49458;SDS011;35354;51.296;16.924;2022-08-16T07:55:32;6.10;;;5.50;;
49458;SDS011;35354;51.296;16.924;2022-08-16T07:57:57;6.40;;;5.05;;
49458;SDS011;35354;51.296;16.924;2022-08-16T08:00:22;6.00;;;5.50;;
49458;SDS011;35354;51.296;16.924;2022-08-16T08:02:48;6.03;;;5.43;;
49458;SDS011;35354;51.296;16.924;2022-08-16T08:05:15;5.63;;;5.13;;
49458;SDS011;35354;51.296;16.924;2022-08-16T08:07:41;6.40;;;5.28;;
49458;SDS011;35354;51.296;16.924;2022-08-16T08:10:06;5.75;;;5.25;;
49458;SDS011;35354;51.296;16.924;2022-08-16T08:12:33;5.88;;;5.38;;
49458;SDS011;35354;51.296;16.924;2022-08-16T08:14:59;5.15;;;4.70;;
49458;SDS011;35354;51.296;16.924;2022-08-16T08:17:26;5.63;;;4.80;;
49458;SDS011;35354;51.296;16.924;2022-08-16T08:19:53;5.43;;;4.72;;
49458;SDS011;35354;51.296;16.924;2022-08-16T08:22:19;5.18;;;4.68;;
49458;SDS011;35354;51.296;16.924;2022-08-16T08:24:46;9.10;;;5.37;;
49458;SDS011;35354;51.296;16.924;2022-08-16T08:27:11;5.20;;;4.78;;
49458;SDS011;35354;51.296;16.924;2022-08-16T08:29:39;8.65;;;5.40;;
49458;SDS011;35354;51.296;16.924;2022-08-16T08:32:05;6.22;;;4.90;;
49458;SDS011;35354;51.296;16.924;2022-08-16T08:34:32;5.47;;;5.05;;
49458;SDS011;35354;51.296;16.924;2022-08-16T08:36:58;6.63;;;5.40;;
49458;SDS011;35354;51.296;16.924;2022-08-16T08:39:23;5.43;;;4.97;;
49458;SDS011;35354;51.296;16.924;2022-08-16T08:41:49;5.40;;;4.90;;
49458;SDS011;35354;51.296;16.924;2022-08-16T08:44:16;5.68;;;5.05;;
49458;SDS011;35354;51.296;16.924;2022-08-16T08:46:42;5.97;;;5.38;;
49458;SDS011;35354;51.296;16.924;2022-08-16T08:49:07;6.15;;;5.55;;
49458;SDS011;35354;51.296;16.924;2022-08-16T08:51:33;7.50;;;5.90;;
49458;SDS011;35354;51.296;16.924;2022-08-16T08:54:00;7.10;;;6.45;;
49458;SDS011;35354;51.296;16.924;2022-08-16T08:56:26;8.32;;;5.82;;
49458;SDS011;35354;51.296;16.924;2022-08-16T08:58:53;6.85;;;6.25;;
49458;SDS011;35354;51.296;16.924;2022-08-16T09:01:20;6.35;;;5.75;;
49458;SDS011;35354;51.296;16.924;2022-08-16T09:03:50;6.93;;;6.32;;
49458;SDS011;35354;51.296;16.924;2022-08-16T09:06:16;7.32;;;6.10;;
49458;SDS011;35354;51.296;16.924;2022-08-16T09:08:41;6.40;;;5.80;;
49458;SDS011;35354;51.296;16.924;2022-08-16T09:11:08;9.57;;;6.43;;
49458;SDS011;35354;51.296;16.924;2022-08-16T09:13:33;8.88;;;6.05;;
49458;SDS011;35354;51.296;16.924;2022-08-16T09:16:00;6.75;;;6.15;;
49458;SDS011;35354;51.296;16.924;2022-08-16T09:18:25;7.43;;;6.47;;
49458;SDS011;35354;51.296;16.924;2022-08-16T09:20:53;7.82;;;6.03;;
49458;SDS011;35354;51.296;16.924;2022-08-16T09:23:19;9.95;;;6.18;;
49458;SDS011;35354;51.296;16.924;2022-08-16T09:25:46;9.88;;;6.85;;
49458;SDS011;35354;51.296;16.924;2022-08-16T09:28:12;6.95;;;6.35;;
49458;SDS011;35354;51.296;16.924;2022-08-16T09:30:37;7.65;;;6.75;;
49458;SDS011;35354;51.296;16.924;2022-08-16T09:33:04;9.93;;;7.00;;
49458;SDS011;35354;51.296;16.924;2022-08-16T09:35:30;8.07;;;6.57;;
49458;SDS011;35354;51.296;16.924;2022-08-16T09:37:56;6.57;;;6.00;;
49458;SDS011;35354;51.296;16.924;2022-08-16T09:40:22;6.82;;;6.13;;
49458;SDS011;35354;51.296;16.924;2022-08-16T09:42:48;6.97;;;6.38;;
49458;SDS011;35354;51.296;16.924;2022-08-16T09:45:14;8.77;;;5.82;;
49458;SDS011;35354;51.296;16.924;2022-08-16T09:47:40;9.27;;;5.68;;
49458;SDS011;35354;51.296;16.924;2022-08-16T09:50:06;6.60;;;5.90;;
49458;SDS011;35354;51.296;16.924;2022-08-16T09:52:33;8.65;;;6.45;;
49458;SDS011;35354;51.296;16.924;2022-08-16T09:55:00;6.45;;;5.85;;
49458;SDS011;35354;51.296;16.924;2022-08-16T09:57:27;6.43;;;5.82;;
49458;SDS011;35354;51.296;16.924;2022-08-16T09:59:53;6.63;;;5.90;;
49458;SDS011;35354;51.296;16.924;2022-08-16T10:02:18;6.93;;;6.20;;
49458;SDS011;35354;51.296;16.924;2022-08-16T10:04:43;8.20;;;6.28;;
49458;SDS011;35354;51.296;16.924;2022-08-16T10:07:09;6.88;;;6.18;;
49458;SDS011;35354;51.296;16.924;2022-08-16T10:09:34;6.65;;;6.05;;
49458;SDS011;35354;51.296;16.924;2022-08-16T10:11:59;8.18;;;6.20;;
49458;SDS011;35354;51.296;16.924;2022-08-16T10:14:43;6.10;;;5.50;;
49458;SDS011;35354;51.296;16.924;2022-08-16T10:17:10;10.95;;;6.57;;
49458;SDS011;35354;51.296;16.924;2022-08-16T10:19:36;7.13;;;6.00;;
49458;SDS011;35354;51.296;16.924;2022-08-16T10:22:02;6.78;;;5.70;;
49458;SDS011;35354;51.296;16.924;2022-08-16T10:24:28;6.20;;;5.60;;
49458;SDS011;35354;51.296;16.924;2022-08-16T10:26:53;7.45;;;5.88;;
49458;SDS011;35354;51.296;16.924;2022-08-16T10:29:21;6.70;;;6.10;;
49458;SDS011;35354;51.296;16.924;2022-08-16T10:31:47;9.02;;;5.82;;
49458;SDS011;35354;51.296;16.924;2022-08-16T10:34:12;9.63;;;6.10;;
49458;SDS011;35354;51.296;16.924;2022-08-16T10:36:38;6.65;;;5.90;;
49458;SDS011;35354;51.296;16.924;2022-08-16T10:39:04;7.28;;;6.32;;
49458;SDS011;35354;51.296;16.924;2022-08-16T10:41:29;6.72;;;6.05;;
49458;SDS011;35354;51.296;16.924;2022-08-16T10:43:55;7.47;;;6.40;;
49458;SDS011;35354;51.296;16.924;2022-08-16T10:46:20;7.10;;;6.38;;
49458;SDS011;35354;51.296;16.924;2022-08-16T10:48:46;7.57;;;5.95;;
49458;SDS011;35354;51.296;16.924;2022-08-16T10:51:11;7.93;;;7.13;;
49458;SDS011;35354;51.296;16.924;2022-08-16T10:53:37;7.95;;;6.10;;
49458;SDS011;35354;51.296;16.924;2022-08-16T10:56:05;9.05;;;6.10;;
49458;SDS011;35354;51.296;16.924;2022-08-16T10:58:32;6.93;;;5.97;;
49458;SDS011;35354;51.296;16.924;2022-08-16T11:00:58;7.50;;;5.63;;
49458;SDS011;35354;51.296;16.924;2022-08-16T11:03:24;6.38;;;5.78;;
49458;SDS011;35354;51.296;16.924;2022-08-16T11:05:52;6.07;;;5.47;;
49458;SDS011;35354;51.296;16.924;2022-08-16T11:08:18;6.28;;;5.45;;
49458;SDS011;35354;51.296;16.924;2022-08-16T11:10:44;6.43;;;5.70;;
49458;SDS011;35354;51.296;16.924;2022-08-16T11:13:11;6.25;;;5.65;;
49458;SDS011;35354;51.296;16.924;2022-08-16T11:15:39;7.22;;;6.20;;
49458;SDS011;35354;51.296;16.924;2022-08-16T11:18:07;6.80;;;5.68;;
49458;SDS011;35354;51.296;16.924;2022-08-16T11:20:33;6.10;;;5.50;;
49458;SDS011;35354;51.296;16.924;2022-08-16T11:22:58;6.93;;;5.45;;
49458;SDS011;35354;51.296;16.924;2022-08-16T11:25:25;7.00;;;5.20;;
49458;SDS011;35354;51.296;16.924;2022-08-16T11:27:52;10.02;;;6.43;;
49458;SDS011;35354;51.296;16.924;2022-08-16T11:30:19;8.18;;;5.57;;
49458;SDS011;35354;51.296;16.924;2022-08-16T11:32:44;5.78;;;5.15;;
49458;SDS011;35354;51.296;16.924;2022-08-16T11:35:11;6.25;;;5.53;;
49458;SDS011;35354;51.296;16.924;2022-08-16T11:37:47;6.30;;;5.70;;
49458;SDS011;35354;51.296;16.924;2022-08-16T11:40:17;5.63;;;5.10;;
49458;SDS011;35354;51.296;16.924;2022-08-16T11:42:42;6.60;;;5.90;;
49458;SDS011;35354;51.296;16.924;2022-08-16T11:45:08;5.63;;;5.13;;
49458;SDS011;35354;51.296;16.924;2022-08-16T11:47:34;6.55;;;5.45;;
49458;SDS011;35354;51.296;16.924;2022-08-16T11:50:01;6.47;;;5.88;;
49458;SDS011;35354;51.296;16.924;2022-08-16T11:52:27;6.15;;;5.55;;
49458;SDS011;35354;51.296;16.924;2022-08-16T11:54:52;7.70;;;6.25;;
49458;SDS011;35354;51.296;16.924;2022-08-16T11:57:18;6.18;;;5.68;;
49458;SDS011;35354;51.296;16.924;2022-08-16T11:59:43;8.18;;;5.25;;
49458;SDS011;35354;51.296;16.924;2022-08-16T12:02:09;6.32;;;5.72;;
49458;SDS011;35354;51.296;16.924;2022-08-16T12:04:34;6.10;;;5.50;;
49458;SDS011;35354;51.296;16.924;2022-08-16T12:07:03;6.88;;;6.25;;
49458;SDS011;35354;51.296;16.924;2022-08-16T12:09:31;6.45;;;5.85;;
49458;SDS011;35354;51.296;16.924;2022-08-16T12:11:56;6.55;;;5.90;;
49458;SDS011;35354;51.296;16.924;2022-08-16T12:14:22;6.22;;;5.63;;
49458;SDS011;35354;51.296;16.924;2022-08-16T12:16:48;6.88;;;5.88;;
49458;SDS011;35354;51.296;16.924;2022-08-16T12:19:14;6.72;;;5.75;;
49458;SDS011;35354;51.296;16.924;2022-08-16T12:21:41;7.22;;;5.97;;
49458;SDS011;35354;51.296;16.924;2022-08-16T12:24:06;6.30;;;5.70;;
49458;SDS011;35354;51.296;16.924;2022-08-16T12:26:32;6.28;;;5.30;;
49458;SDS011;35354;51.296;16.924;2022-08-16T12:28:58;6.55;;;5.93;;
49458;SDS011;35354;51.296;16.924;2022-08-16T12:31:25;7.25;;;5.65;;
49458;SDS011;35354;51.296;16.924;2022-08-16T12:33:50;7.00;;;6.30;;
49458;SDS011;35354;51.296;16.924;2022-08-16T12:36:17;8.13;;;6.35;;
49458;SDS011;35354;51.296;16.924;2022-08-16T12:38:43;6.53;;;5.93;;
49458;SDS011;35354;51.296;16.924;2022-08-16T12:41:08;7.75;;;6.07;;
49458;SDS011;35354;51.296;16.924;2022-08-16T12:43:34;7.38;;;6.50;;
49458;SDS011;35354;51.296;16.924;2022-08-16T12:46:00;7.05;;;6.38;;
49458;SDS011;35354;51.296;16.924;2022-08-16T12:48:27;6.57;;;5.90;;
49458;SDS011;35354;51.296;16.924;2022-08-16T12:51:14;6.35;;;5.75;;
49458;SDS011;35354;51.296;16.924;2022-08-16T12:53:42;6.35;;;5.82;;
49458;SDS011;35354;51.296;16.924;2022-08-16T12:56:08;5.82;;;5.32;;
49458;SDS011;35354;51.296;16.924;2022-08-16T12:58:36;7.55;;;6.05;;
49458;SDS011;35354;51.296;16.924;2022-08-16T13:01:03;7.55;;;6.28;;
49458;SDS011;35354;51.296;16.924;2022-08-16T13:03:29;6.72;;;5.95;;
49458;SDS011;35354;51.296;16.924;2022-08-16T13:05:55;6.18;;;5.63;;
49458;SDS011;35354;51.296;16.924;2022-08-16T13:08:21;6.35;;;5.07;;
49458;SDS011;35354;51.296;16.924;2022-08-16T13:10:47;7.20;;;6.00;;
49458;SDS011;35354;51.296;16.924;2022-08-16T13:13:17;6.22;;;5.68;;
49458;SDS011;35354;51.296;16.924;2022-08-16T13:15:53;7.00;;;5.38;;
49458;SDS011;35354;51.296;16.924;2022-08-16T13:18:21;6.28;;;5.68;;
49458;SDS011;35354;51.296;16.924;2022-08-16T13:20:48;6.60;;;5.75;;
49458;SDS011;35354;51.296;16.924;2022-08-16T13:23:14;5.85;;;5.35;;
49458;SDS011;35354;51.296;16.924;2022-08-16T13:25:41;6.05;;;5.55;;
49458;SDS011;35354;51.296;16.924;2022-08-16T13:28:08;6.80;;;5.68;;
49458;SDS011;35354;51.296;16.924;2022-08-16T13:30:36;8.48;;;6.03;;
49458;SDS011;35354;51.296;16.924;2022-08-16T13:33:04;6.35;;;5.75;;
49458;SDS011;35354;51.296;16.924;2022-08-16T13:35:30;5.68;;;5.22;;
49458;SDS011;35354;51.296;16.924;2022-08-16T13:37:55;6.72;;;6.03;;
49458;SDS011;35354;51.296;16.924;2022-08-16T13:40:21;6.00;;;5.35;;
49458;SDS011;35354;51.296;16.924;2022-08-16T13:42:47;6.78;;;6.10;;
49458;SDS011;35354;51.296;16.924;2022-08-16T13:45:14;6.13;;;5.38;;
49458;SDS011;35354;51.296;16.924;2022-08-16T13:47:40;7.90;;;6.05;;
49458;SDS011;35354;51.296;16.924;2022-08-16T13:50:06;6.15;;;5.65;;
49458;SDS011;35354;51.296;16.924;2022-08-16T13:52:32;6.50;;;5.90;;
49458;SDS011;35354;51.296;16.924;2022-08-16T13:54:58;6.20;;;5.70;;
49458;SDS011;35354;51.296;16.924;2022-08-16T13:57:23;5.90;;;5.32;;
49458;SDS011;35354;51.296;16.924;2022-08-16T13:59:49;6.68;;;6.07;;
49458;SDS011;35354;51.296;16.924;2022-08-16T14:02:14;6.25;;;5.40;;
49458;SDS011;35354;51.296;16.924;2022-08-16T14:04:40;5.47;;;4.88;;
49458;SDS011;35354;51.296;16.924;2022-08-16T14:07:06;6.80;;;5.68;;
49458;SDS011;35354;51.296;16.924;2022-08-16T14:09:34;8.00;;;6.10;;
49458;SDS011;35354;51.296;16.924;2022-08-16T14:12:02;6.22;;;5.63;;
49458;SDS011;35354;51.296;16.924;2022-08-16T14:14:30;6.23;;;5.63;;
49458;SDS011;35354;51.296;16.924;2022-08-16T14:16:59;6.43;;;5.78;;
49458;SDS011;35354;51.296;16.924;2022-08-16T14:19:26;6.55;;;5.90;;
49458;SDS011;35354;51.296;16.924;2022-08-16T14:21:54;6.10;;;5.55;;
49458;SDS011;35354;51.296;16.924;2022-08-16T14:24:21;6.63;;;5.93;;
49458;SDS011;35354;51.296;16.924;2022-08-16T14:26:46;5.78;;;5.28;;
49458;SDS011;35354;51.296;16.924;2022-08-16T14:29:12;5.75;;;5.25;;